Time,TemperatureF,DewpointF,PressureIn,WindDirection,WindDirectionDegrees,WindSpeedMPH,WindSpeedGustMPH,Humidity,HourlyPrecipIn,Conditions,Clouds,dailyrainin,SoftwareType,DateUTC
2013-07-07 00:03:00,74.5,65.3,29.31,South,188,0.0,9.0,73,0.00,,,0.00,meteohub,2013-07-07 05:03:00,
2013-07-07 00:08:00,74.1,64.9,29.31,South,188,0.0,7.0,73,0.00,,,0.00,meteohub,2013-07-07 05:08:00,
2013-07-07 00:13:00,74.1,64.9,29.31,South,187,0.0,7.0,73,0.00,,,0.00,meteohub,2013-07-07 05:13:00,
2013-07-07 00:18:00,73.9,65.1,29.32,South,173,6.0,6.0,74,0.00,,,0.00,meteohub,2013-07-07 05:18:00,
2013-07-07 00:23:00,73.6,65.1,29.31,South,185,0.0,7.0,75,0.00,,,0.00,meteohub,2013-07-07 05:23:00,
2013-07-07 00:28:00,73.6,65.1,29.31,South,186,0.0,7.0,75,0.00,,,0.00,meteohub,2013-07-07 05:28:00,
2013-07-07 00:33:00,73.4,65.3,29.31,WSW,242,1.0,7.0,76,0.00,,,0.00,meteohub,2013-07-07 05:33:00,
2013-07-07 00:38:00,73.6,65.5,29.31,South,184,3.0,6.0,76,0.00,,,0.00,meteohub,2013-07-07 05:38:00,
2013-07-07 00:44:00,73.6,65.5,29.31,SW,223,0.0,6.0,76,0.00,,,0.00,meteohub,2013-07-07 05:44:00,
2013-07-07 00:49:00,73.6,65.5,29.31,SSW,209,4.0,6.0,76,0.00,,,0.00,meteohub,2013-07-07 05:49:00,
2013-07-07 00:54:00,73.6,65.8,29.31,SSW,203,0.0,5.0,77,0.00,,,0.00,meteohub,2013-07-07 05:54:00,
2013-07-07 00:59:00,73.8,66.0,29.31,South,180,1.0,5.0,77,0.00,,,0.00,meteohub,2013-07-07 05:59:00,
2013-07-07 01:04:00,73.8,66.0,29.31,SW,225,0.0,6.0,77,0.00,,,0.00,meteohub,2013-07-07 06:04:00,
2013-07-07 01:09:00,73.6,65.8,29.31,South,190,0.0,6.0,77,0.00,,,0.00,meteohub,2013-07-07 06:09:00,
2013-07-07 01:14:00,73.6,65.8,29.31,SSW,210,7.0,7.0,77,0.00,,,0.00,meteohub,2013-07-07 06:14:00,
2013-07-07 01:19:00,73.6,66.4,29.31,South,185,5.0,7.0,78,0.00,,,0.00,meteohub,2013-07-07 06:19:00,
2013-07-07 01:24:00,73.4,66.2,29.31,South,174,0.0,7.0,78,0.00,,,0.00,meteohub,2013-07-07 06:24:00,
2013-07-07 01:29:00,73.2,66.0,29.31,SSW,205,0.0,9.0,78,0.00,,,0.00,meteohub,2013-07-07 06:29:00,
2013-07-07 01:34:00,73.2,66.0,29.31,SSW,194,0.0,9.0,78,0.00,,,0.00,meteohub,2013-07-07 06:34:00,
2013-07-07 01:39:00,73.0,65.8,29.31,South,188,4.0,9.0,78,0.00,,,0.00,meteohub,2013-07-07 06:39:00,
2013-07-07 01:44:00,72.9,66.0,29.31,South,186,5.0,9.0,79,0.00,,,0.00,meteohub,2013-07-07 06:44:00,
2013-07-07 01:49:00,72.7,65.8,29.31,South,183,0.0,9.0,79,0.00,,,0.00,meteohub,2013-07-07 06:49:00,
2013-07-07 01:54:00,72.5,65.7,29.31,South,176,5.0,9.0,79,0.00,,,0.00,meteohub,2013-07-07 06:54:00,
2013-07-07 01:59:00,72.3,65.5,29.30,SSW,194,3.0,9.0,79,0.00,,,0.00,meteohub,2013-07-07 06:59:00,
2013-07-07 02:04:00,72.1,65.7,29.30,South,182,0.0,9.0,80,0.00,,,0.00,meteohub,2013-07-07 07:04:00,
2013-07-07 02:09:00,72.1,65.7,29.31,South,182,0.0,9.0,80,0.00,,,0.00,meteohub,2013-07-07 07:09:00,
2013-07-07 02:14:00,72.1,65.7,29.31,SSW,201,0.0,9.0,80,0.00,,,0.00,meteohub,2013-07-07 07:14:00,
2013-07-07 02:19:00,72.1,65.7,29.31,South,174,2.0,5.0,80,0.00,,,0.00,meteohub,2013-07-07 07:19:00,
2013-07-07 02:24:00,72.0,65.5,29.31,SSW,207,0.0,6.0,80,0.00,,,0.00,meteohub,2013-07-07 07:24:00,
2013-07-07 02:29:00,72.1,65.7,29.31,SSW,207,0.0,6.0,80,0.00,,,0.00,meteohub,2013-07-07 07:29:00,
2013-07-07 02:34:00,72.0,65.5,29.30,SSW,192,0.0,6.0,80,0.00,,,0.00,meteohub,2013-07-07 07:34:00,
2013-07-07 02:39:00,72.0,65.5,29.31,SSW,211,2.0,5.0,80,0.00,,,0.00,meteohub,2013-07-07 07:39:00,
2013-07-07 02:44:00,72.0,65.5,29.30,SSW,209,1.0,4.0,80,0.00,,,0.00,meteohub,2013-07-07 07:44:00,
2013-07-07 02:49:00,72.0,65.5,29.30,SSW,198,0.0,5.0,80,0.00,,,0.00,meteohub,2013-07-07 07:49:00,
2013-07-07 02:54:00,72.0,65.5,29.30,SSW,198,0.0,5.0,80,0.00,,,0.00,meteohub,2013-07-07 07:54:00,
2013-07-07 02:59:00,71.8,65.3,29.30,SSW,198,2.0,5.0,80,0.00,,,0.00,meteohub,2013-07-07 07:59:00,
2013-07-07 03:04:00,71.8,65.3,29.30,SSW,200,0.0,5.0,80,0.00,,,0.00,meteohub,2013-07-07 08:04:00,
2013-07-07 03:09:00,71.4,64.9,29.30,South,190,2.0,5.0,80,0.00,,,0.00,meteohub,2013-07-07 08:09:00,
2013-07-07 03:14:00,71.4,64.9,29.30,SSW,193,3.0,6.0,80,0.00,,,0.00,meteohub,2013-07-07 08:14:00,
2013-07-07 03:19:00,71.2,65.1,29.30,SSW,195,0.0,6.0,81,0.00,,,0.00,meteohub,2013-07-07 08:19:00,
2013-07-07 03:24:00,71.2,65.1,29.30,SSW,198,3.0,6.0,81,0.00,,,0.00,meteohub,2013-07-07 08:24:00,
2013-07-07 03:29:00,71.2,65.1,29.30,SSW,198,3.0,7.0,81,0.00,,,0.00,meteohub,2013-07-07 08:29:00,
2013-07-07 03:34:00,71.2,65.1,29.30,South,174,0.0,7.0,81,0.00,,,0.00,meteohub,2013-07-07 08:34:00,
2013-07-07 03:39:00,71.2,65.1,29.30,SSW,194,0.0,8.0,81,0.00,,,0.00,meteohub,2013-07-07 08:39:00,
2013-07-07 03:44:00,71.2,65.1,29.30,South,191,3.0,8.0,81,0.00,,,0.00,meteohub,2013-07-07 08:44:00,
2013-07-07 03:49:00,71.2,65.1,29.30,SSW,198,0.0,8.0,81,0.00,,,0.00,meteohub,2013-07-07 08:49:00,
2013-07-07 03:54:00,71.1,64.9,29.30,South,185,0.0,9.0,81,0.00,,,0.00,meteohub,2013-07-07 08:54:00,
2013-07-07 03:59:00,71.1,64.9,29.30,South,182,0.0,9.0,81,0.00,,,0.00,meteohub,2013-07-07 08:59:00,
2013-07-07 04:04:00,71.1,64.9,29.30,South,181,3.0,9.0,81,0.00,,,0.00,meteohub,2013-07-07 09:04:00,
2013-07-07 04:09:00,70.9,64.8,29.30,SSW,199,3.0,9.0,81,0.00,,,0.00,meteohub,2013-07-07 09:09:00,
2013-07-07 04:14:00,70.9,64.8,29.30,South,186,4.0,9.0,81,0.00,,,0.00,meteohub,2013-07-07 09:14:00,
2013-07-07 04:19:00,70.9,64.8,29.30,South,185,0.0,10.0,81,0.00,,,0.00,meteohub,2013-07-07 09:19:00,
2013-07-07 04:24:00,70.9,64.8,29.30,SSE,154,5.0,11.0,81,0.00,,,0.00,meteohub,2013-07-07 09:24:00,
2013-07-07 04:29:00,70.9,64.8,29.30,SSW,203,0.0,11.0,81,0.00,,,0.00,meteohub,2013-07-07 09:29:00,
2013-07-07 04:34:00,70.9,64.8,29.30,South,186,2.0,9.0,81,0.00,,,0.00,meteohub,2013-07-07 09:34:00,
2013-07-07 04:39:00,70.9,64.4,29.30,South,178,0.0,9.0,80,0.00,,,0.00,meteohub,2013-07-07 09:39:00,
2013-07-07 04:44:00,70.9,64.4,29.30,South,178,2.0,9.0,80,0.00,,,0.00,meteohub,2013-07-07 09:44:00,
2013-07-07 04:49:00,70.9,64.4,29.30,SW,221,0.0,9.0,80,0.00,,,0.00,meteohub,2013-07-07 09:49:00,
2013-07-07 04:54:00,70.9,64.4,29.30,SSW,192,0.0,9.0,80,0.00,,,0.00,meteohub,2013-07-07 09:54:00,
2013-07-07 04:59:00,70.9,64.4,29.30,SW,215,0.0,9.0,80,0.00,,,0.00,meteohub,2013-07-07 09:59:00,
2013-07-07 05:04:00,70.9,64.4,29.31,SSW,197,3.0,9.0,80,0.00,,,0.00,meteohub,2013-07-07 10:04:00,
2013-07-07 05:09:00,70.9,64.4,29.31,WSW,241,2.0,7.0,80,0.00,,,0.00,meteohub,2013-07-07 10:09:00,
2013-07-07 05:14:00,70.9,64.4,29.30,SSW,213,0.0,9.0,80,0.00,,,0.00,meteohub,2013-07-07 10:14:00,
2013-07-07 05:20:00,70.7,64.2,29.31,SW,221,2.0,9.0,80,0.00,,,0.00,meteohub,2013-07-07 10:20:00,
2013-07-07 05:25:00,70.5,64.0,29.31,South,184,2.0,9.0,80,0.00,,,0.00,meteohub,2013-07-07 10:25:00,
2013-07-07 05:30:00,70.5,64.0,29.31,South,188,2.0,5.0,80,0.00,,,0.00,meteohub,2013-07-07 10:30:00,
2013-07-07 05:35:00,70.5,64.0,29.31,SSW,198,0.0,5.0,80,0.00,,,0.00,meteohub,2013-07-07 10:35:00,
2013-07-07 05:40:00,70.3,63.9,29.31,SW,229,1.0,6.0,80,0.00,,,0.00,meteohub,2013-07-07 10:40:00,
2013-07-07 05:45:00,70.3,64.2,29.31,SW,229,0.0,6.0,81,0.00,,,0.00,meteohub,2013-07-07 10:45:00,
2013-07-07 05:50:00,70.3,64.2,29.31,SW,222,0.0,5.0,81,0.00,,,0.00,meteohub,2013-07-07 10:50:00,
2013-07-07 05:55:00,70.3,64.2,29.31,SW,221,0.0,5.0,81,0.00,,,0.00,meteohub,2013-07-07 10:55:00,
2013-07-07 06:00:00,70.2,64.0,29.31,SSW,207,1.0,5.0,81,0.00,,,0.00,meteohub,2013-07-07 11:00:00,
2013-07-07 06:05:00,70.2,64.0,29.31,SW,219,0.0,9.0,81,0.00,,,0.00,meteohub,2013-07-07 11:05:00,
2013-07-07 06:10:00,70.2,64.0,29.32,SSW,197,0.0,9.0,81,0.00,,,0.00,meteohub,2013-07-07 11:10:00,
2013-07-07 06:15:00,70.2,64.4,29.32,SSW,203,0.0,9.0,82,0.00,,,0.00,meteohub,2013-07-07 11:15:00,
2013-07-07 06:20:00,70.3,64.6,29.32,SSW,196,1.0,6.0,82,0.00,,,0.00,meteohub,2013-07-07 11:20:00,
2013-07-07 06:25:00,70.3,64.6,29.32,SSW,202,0.0,6.0,82,0.00,,,0.00,meteohub,2013-07-07 11:25:00,
2013-07-07 06:30:00,70.5,64.8,29.32,SW,215,0.0,6.0,82,0.00,,,0.00,meteohub,2013-07-07 11:30:00,
2013-07-07 06:35:00,70.5,64.8,29.32,SSW,205,3.0,4.0,82,0.00,,,0.00,meteohub,2013-07-07 11:35:00,
2013-07-07 06:40:00,70.7,64.9,29.32,SW,229,3.0,4.0,82,0.00,,,0.00,meteohub,2013-07-07 11:40:00,
2013-07-07 06:45:00,70.9,64.8,29.32,SSW,211,1.0,4.0,81,0.00,,,0.00,meteohub,2013-07-07 11:45:00,
2013-07-07 06:50:00,71.1,64.9,29.32,SW,219,2.0,7.0,81,0.00,,,0.00,meteohub,2013-07-07 11:50:00,
2013-07-07 06:55:00,71.2,65.1,29.32,South,180,6.0,9.0,81,0.00,,,0.00,meteohub,2013-07-07 11:55:00,
2013-07-07 07:00:00,71.2,65.1,29.33,SSW,196,4.0,9.0,81,0.00,,,0.00,meteohub,2013-07-07 12:00:00,
2013-07-07 07:05:00,71.4,65.3,29.32,SSW,211,1.0,9.0,81,0.00,,,0.00,meteohub,2013-07-07 12:05:00,
2013-07-07 07:10:00,71.4,65.3,29.33,South,174,3.0,7.0,81,0.00,,,0.00,meteohub,2013-07-07 12:10:00,
2013-07-07 07:15:00,71.4,65.3,29.33,South,190,6.0,7.0,81,0.00,,,0.00,meteohub,2013-07-07 12:15:00,
2013-07-07 07:20:00,71.4,65.3,29.33,SSW,205,0.0,6.0,81,0.00,,,0.00,meteohub,2013-07-07 12:20:00,
2013-07-07 07:25:00,71.4,65.3,29.33,SW,227,4.0,7.0,81,0.00,,,0.00,meteohub,2013-07-07 12:25:00,
2013-07-07 07:30:00,71.8,65.7,29.33,SSW,212,1.0,9.0,81,0.00,,,0.00,meteohub,2013-07-07 12:30:00,
2013-07-07 07:35:00,72.0,65.8,29.33,SSW,194,4.0,9.0,81,0.00,,,0.00,meteohub,2013-07-07 12:35:00,
2013-07-07 07:40:00,72.3,66.2,29.33,South,190,1.0,9.0,81,0.00,,,0.00,meteohub,2013-07-07 12:40:00,
2013-07-07 07:45:00,72.7,66.2,29.33,South,188,1.0,10.0,80,0.00,,,0.00,meteohub,2013-07-07 12:45:00,
2013-07-07 07:50:00,73.0,66.2,29.33,WSW,250,6.0,10.0,79,0.00,,,0.00,meteohub,2013-07-07 12:50:00,
2013-07-07 07:55:00,73.6,66.7,29.33,SSW,204,2.0,11.0,79,0.00,,,0.00,meteohub,2013-07-07 12:55:00,
2013-07-07 08:00:00,73.9,66.6,29.33,SSW,209,0.0,11.0,78,0.00,,,0.00,meteohub,2013-07-07 13:00:00,
2013-07-07 08:05:00,74.7,67.3,29.33,SSW,209,3.0,11.0,78,0.00,,,0.00,meteohub,2013-07-07 13:05:00,
2013-07-07 08:10:00,75.0,67.3,29.33,SSW,211,7.0,9.0,77,0.00,,,0.00,meteohub,2013-07-07 13:10:00,
2013-07-07 08:15:00,75.4,67.3,29.33,SSW,208,5.0,9.0,76,0.00,,,0.00,meteohub,2013-07-07 13:15:00,
2013-07-07 08:20:00,75.6,67.1,29.33,SSW,200,2.0,12.0,75,0.00,,,0.00,meteohub,2013-07-07 13:20:00,
2013-07-07 08:26:00,75.7,67.3,29.33,SSW,209,0.0,12.0,75,0.00,,,0.00,meteohub,2013-07-07 13:26:00,
2013-07-07 08:31:00,75.9,67.5,29.33,SSW,193,0.0,10.0,75,0.00,,,0.00,meteohub,2013-07-07 13:31:00,
2013-07-07 08:36:00,76.3,67.8,29.33,SW,228,3.0,10.0,75,0.00,,,0.00,meteohub,2013-07-07 13:36:00,
2013-07-07 08:41:00,76.6,67.6,29.33,South,188,6.0,9.0,74,0.00,,,0.00,meteohub,2013-07-07 13:41:00,
2013-07-07 08:46:00,77.0,68.0,29.33,SSW,203,3.0,9.0,74,0.00,,,0.00,meteohub,2013-07-07 13:46:00,
2013-07-07 08:51:00,77.4,68.0,29.33,SSW,209,8.0,11.0,73,0.00,,,0.00,meteohub,2013-07-07 13:51:00,
2013-07-07 08:56:00,77.5,67.8,29.33,SW,225,2.0,12.0,72,0.00,,,0.00,meteohub,2013-07-07 13:56:00,
2013-07-07 09:01:00,77.7,68.0,29.33,SSW,207,6.0,12.0,72,0.00,,,0.00,meteohub,2013-07-07 14:01:00,
2013-07-07 09:06:00,77.7,68.0,29.33,SSW,199,3.0,10.0,72,0.00,,,0.00,meteohub,2013-07-07 14:06:00,
2013-07-07 09:11:00,78.1,68.4,29.33,SW,217,4.0,9.0,72,0.00,,,0.00,meteohub,2013-07-07 14:11:00,
2013-07-07 09:16:00,78.3,68.0,29.33,SSE,157,3.0,9.0,71,0.00,,,0.00,meteohub,2013-07-07 14:16:00,
2013-07-07 09:21:00,78.6,68.4,29.33,SSW,213,1.0,10.0,71,0.00,,,0.00,meteohub,2013-07-07 14:21:00,
2013-07-07 09:26:00,79.2,68.9,29.33,South,189,4.0,11.0,71,0.00,,,0.00,meteohub,2013-07-07 14:26:00,
2013-07-07 09:31:00,79.9,69.3,29.33,SSW,212,3.0,11.0,70,0.00,,,0.00,meteohub,2013-07-07 14:31:00,
2013-07-07 09:36:00,80.8,69.6,29.32,SW,222,3.0,7.0,69,0.00,,,0.00,meteohub,2013-07-07 14:36:00,
2013-07-07 09:41:00,81.3,68.9,29.32,SSW,200,3.0,9.0,66,0.00,,,0.00,meteohub,2013-07-07 14:41:00,
2013-07-07 09:46:00,81.5,69.1,29.32,SW,215,3.0,10.0,66,0.00,,,0.00,meteohub,2013-07-07 14:46:00,
2013-07-07 09:51:00,81.9,69.4,29.32,SSE,166,6.0,10.0,66,0.00,,,0.00,meteohub,2013-07-07 14:51:00,
2013-07-07 09:56:00,82.0,68.7,29.32,SW,215,5.0,9.0,64,0.00,,,0.00,meteohub,2013-07-07 14:56:00,
2013-07-07 10:01:00,82.6,69.1,29.32,SW,220,0.0,11.0,64,0.00,,,0.00,meteohub,2013-07-07 15:01:00,
2013-07-07 10:06:00,82.9,69.4,29.32,SW,232,4.0,11.0,64,0.00,,,0.00,meteohub,2013-07-07 15:06:00,
2013-07-07 10:11:00,83.3,69.4,29.32,SSW,199,1.0,10.0,63,0.00,,,0.00,meteohub,2013-07-07 15:11:00,
2013-07-07 10:16:00,83.5,69.6,29.32,SSW,202,1.0,14.0,63,0.00,,,0.00,meteohub,2013-07-07 15:16:00,
2013-07-07 10:21:00,83.8,70.0,29.31,SSW,213,2.0,14.0,63,0.00,,,0.00,meteohub,2013-07-07 15:21:00,
2013-07-07 10:26:00,84.4,70.0,29.31,WSW,248,0.0,14.0,62,0.00,,,0.00,meteohub,2013-07-07 15:26:00,
2013-07-07 10:31:00,84.4,69.4,29.31,SSW,196,6.0,14.0,61,0.00,,,0.00,meteohub,2013-07-07 15:31:00,
2013-07-07 10:36:00,84.6,69.6,29.31,SSW,196,5.0,14.0,61,0.00,,,0.00,meteohub,2013-07-07 15:36:00,
2013-07-07 10:41:00,84.6,69.6,29.31,SW,219,0.0,13.0,61,0.00,,,0.00,meteohub,2013-07-07 15:41:00,
2013-07-07 10:46:00,84.7,69.8,29.31,SSW,200,9.0,11.0,61,0.00,,,0.00,meteohub,2013-07-07 15:46:00,
2013-07-07 10:51:00,84.9,70.0,29.31,SW,217,2.0,11.0,61,0.00,,,0.00,meteohub,2013-07-07 15:51:00,
2013-07-07 10:56:00,85.5,70.0,29.31,WSW,250,4.0,10.0,60,0.00,,,0.00,meteohub,2013-07-07 15:56:00,
2013-07-07 11:01:00,85.6,69.6,29.31,South,182,1.0,13.0,59,0.00,,,0.00,meteohub,2013-07-07 16:01:00,
2013-07-07 11:06:00,86.0,70.0,29.31,SSW,207,1.0,13.0,59,0.00,,,0.00,meteohub,2013-07-07 16:06:00,
2013-07-07 11:11:00,86.2,69.6,29.31,WSW,244,4.0,13.0,58,0.00,,,0.00,meteohub,2013-07-07 16:11:00,
2013-07-07 11:16:00,86.5,70.5,29.31,SW,223,3.0,11.0,59,0.00,,,0.00,meteohub,2013-07-07 16:16:00,
2013-07-07 11:21:00,86.7,69.6,29.31,WSW,244,0.0,11.0,57,0.00,,,0.00,meteohub,2013-07-07 16:21:00,
2013-07-07 11:26:00,86.7,69.6,29.31,South,175,4.0,11.0,57,0.00,,,0.00,meteohub,2013-07-07 16:26:00,
2013-07-07 11:31:00,87.1,70.5,29.31,SW,227,1.0,11.0,58,0.00,,,0.00,meteohub,2013-07-07 16:31:00,
2013-07-07 11:36:00,87.6,70.5,29.32,SSW,198,4.0,11.0,57,0.00,,,0.00,meteohub,2013-07-07 16:36:00,
2013-07-07 11:41:00,87.6,70.0,29.32,SSE,167,2.0,11.0,56,0.00,,,0.00,meteohub,2013-07-07 16:41:00,
2013-07-07 11:46:00,87.4,70.3,29.31,SW,223,0.0,12.0,57,0.00,,,0.00,meteohub,2013-07-07 16:46:00,
2013-07-07 11:51:00,88.0,70.3,29.32,WSW,254,7.0,14.0,56,0.00,,,0.00,meteohub,2013-07-07 16:51:00,
2013-07-07 11:56:00,88.2,70.0,29.32,SW,219,4.0,14.0,55,0.00,,,0.00,meteohub,2013-07-07 16:56:00,
2013-07-07 12:01:00,88.5,70.9,29.32,WSW,245,0.0,14.0,56,0.00,,,0.00,meteohub,2013-07-07 17:01:00,
2013-07-07 12:06:00,89.4,70.0,29.32,SSW,192,4.0,13.0,53,0.00,,,0.00,meteohub,2013-07-07 17:06:00,
2013-07-07 12:11:00,89.2,70.3,29.32,SSW,207,4.0,10.0,54,0.00,,,0.00,meteohub,2013-07-07 17:11:00,
2013-07-07 12:16:00,89.1,69.6,29.32,West,259,2.0,10.0,53,0.00,,,0.00,meteohub,2013-07-07 17:16:00,
2013-07-07 12:21:00,89.1,70.2,29.32,SW,227,9.0,10.0,54,0.00,,,0.00,meteohub,2013-07-07 17:21:00,
2013-07-07 12:27:00,89.1,69.1,29.32,WSW,252,0.0,13.0,52,0.00,,,0.00,meteohub,2013-07-07 17:27:00,
2013-07-07 12:32:00,88.9,70.2,29.32,SW,235,4.0,13.0,54,0.00,,,0.00,meteohub,2013-07-07 17:32:00,
2013-07-07 12:37:00,88.5,69.8,29.32,WSW,240,6.0,13.0,54,0.00,,,0.00,meteohub,2013-07-07 17:37:00,
2013-07-07 12:42:00,88.2,70.0,29.32,SW,220,0.0,12.0,55,0.00,,,0.00,meteohub,2013-07-07 17:42:00,
2013-07-07 12:47:00,88.0,70.3,29.32,West,262,1.0,12.0,56,0.00,,,0.00,meteohub,2013-07-07 17:47:00,
2013-07-07 12:52:00,87.8,70.2,29.32,South,180,0.0,11.0,56,0.00,,,0.00,meteohub,2013-07-07 17:52:00,
2013-07-07 12:57:00,87.6,70.5,29.32,WSW,248,1.0,12.0,57,0.00,,,0.00,meteohub,2013-07-07 17:57:00,
2013-07-07 13:02:00,87.6,71.1,29.32,SSW,209,0.0,12.0,58,0.00,,,0.00,meteohub,2013-07-07 18:02:00,
2013-07-07 13:07:00,87.6,71.1,29.32,South,188,0.0,14.0,58,0.00,,,0.00,meteohub,2013-07-07 18:07:00,
2013-07-07 13:12:00,88.3,71.2,29.32,SW,227,4.0,14.0,57,0.00,,,0.00,meteohub,2013-07-07 18:12:00,
2013-07-07 13:17:00,88.9,71.1,29.32,WSW,254,7.0,10.0,56,0.00,,,0.00,meteohub,2013-07-07 18:17:00,
2013-07-07 13:22:00,89.2,70.9,29.32,South,190,12.0,14.0,55,0.00,,,0.00,meteohub,2013-07-07 18:22:00,
2013-07-07 13:27:00,89.1,71.2,29.32,South,188,4.0,14.0,56,0.00,,,0.00,meteohub,2013-07-07 18:27:00,
2013-07-07 13:32:00,88.9,71.6,29.32,SSW,207,1.0,14.0,57,0.00,,,0.00,meteohub,2013-07-07 18:32:00,
2013-07-07 13:37:00,89.8,70.9,29.32,South,183,6.0,12.0,54,0.00,,,0.00,meteohub,2013-07-07 18:37:00,
2013-07-07 13:42:00,90.0,71.6,29.31,South,188,4.0,11.0,55,0.00,,,0.00,meteohub,2013-07-07 18:42:00,
2013-07-07 13:47:00,90.1,71.2,29.31,WSW,248,9.0,12.0,54,0.00,,,0.00,meteohub,2013-07-07 18:47:00,
2013-07-07 13:52:00,90.1,71.2,29.32,West,279,0.0,12.0,54,0.00,,,0.00,meteohub,2013-07-07 18:52:00,
2013-07-07 13:57:00,90.3,70.3,29.31,WSW,242,2.0,11.0,52,0.00,,,0.00,meteohub,2013-07-07 18:57:00,
2013-07-07 14:02:00,90.3,68.5,29.31,NW,306,2.0,12.0,49,0.00,,,0.00,meteohub,2013-07-07 19:02:00,
2013-07-07 14:07:00,90.3,68.5,29.31,SW,230,1.0,12.0,49,0.00,,,0.00,meteohub,2013-07-07 19:07:00,
2013-07-07 14:12:00,90.3,69.1,29.31,WSW,257,0.0,12.0,50,0.00,,,0.00,meteohub,2013-07-07 19:12:00,
2013-07-07 14:17:00,90.0,68.9,29.31,WSW,249,4.0,10.0,50,0.00,,,0.00,meteohub,2013-07-07 19:17:00,
2013-07-07 14:22:00,89.8,69.3,29.31,WSW,255,5.0,10.0,51,0.00,,,0.00,meteohub,2013-07-07 19:22:00,
2013-07-07 14:27:00,90.0,69.4,29.31,SW,223,0.0,11.0,51,0.00,,,0.00,meteohub,2013-07-07 19:27:00,
2013-07-07 14:32:00,90.0,68.9,29.31,SW,236,0.0,11.0,50,0.00,,,0.00,meteohub,2013-07-07 19:32:00,
2013-07-07 14:37:00,90.0,68.2,29.31,WSW,243,0.0,10.0,49,0.00,,,0.00,meteohub,2013-07-07 19:37:00,
2013-07-07 14:42:00,90.1,68.9,29.31,SW,236,1.0,10.0,50,0.00,,,0.00,meteohub,2013-07-07 19:42:00,
2013-07-07 14:47:00,90.3,69.8,29.31,West,275,2.0,11.0,51,0.00,,,0.00,meteohub,2013-07-07 19:47:00,
2013-07-07 14:52:00,90.5,68.7,29.31,SW,217,1.0,11.0,49,0.00,,,0.00,meteohub,2013-07-07 19:52:00,
2013-07-07 14:57:00,90.7,69.4,29.31,South,190,6.0,9.0,50,0.00,,,0.00,meteohub,2013-07-07 19:57:00,
2013-07-07 15:02:00,90.5,68.7,29.31,SW,217,1.0,13.0,49,0.00,,,0.00,meteohub,2013-07-07 20:02:00,
2013-07-07 15:07:00,90.5,69.3,29.31,WSW,250,4.0,13.0,50,0.00,,,0.00,meteohub,2013-07-07 20:07:00,
2013-07-07 15:12:00,90.5,69.3,29.31,WSW,257,6.0,13.0,50,0.00,,,0.00,meteohub,2013-07-07 20:12:00,
2013-07-07 15:17:00,90.5,69.3,29.31,SW,219,0.0,11.0,50,0.00,,,0.00,meteohub,2013-07-07 20:17:00,
2013-07-07 15:22:00,90.7,70.0,29.31,South,190,9.0,11.0,51,0.00,,,0.00,meteohub,2013-07-07 20:22:00,
2013-07-07 15:27:00,90.7,69.4,29.31,WSW,244,2.0,10.0,50,0.00,,,0.00,meteohub,2013-07-07 20:27:00,
2013-07-07 15:32:00,90.7,69.4,29.31,SW,221,0.0,11.0,50,0.00,,,0.00,meteohub,2013-07-07 20:32:00,
2013-07-07 15:37:00,90.3,68.5,29.31,SW,236,6.0,11.0,49,0.00,,,0.00,meteohub,2013-07-07 20:37:00,
2013-07-07 15:42:00,90.1,68.9,29.31,SW,234,3.0,10.0,50,0.00,,,0.00,meteohub,2013-07-07 20:42:00,
2013-07-07 15:47:00,90.1,68.9,29.31,SW,236,3.0,10.0,50,0.00,,,0.00,meteohub,2013-07-07 20:47:00,
2013-07-07 15:52:00,90.1,69.6,29.30,SW,216,1.0,10.0,51,0.00,,,0.00,meteohub,2013-07-07 20:52:00,
2013-07-07 15:57:00,90.3,69.1,29.29,WSW,245,0.0,10.0,50,0.00,,,0.00,meteohub,2013-07-07 20:57:00,
2013-07-07 16:02:00,90.9,68.5,29.29,SW,235,10.0,13.0,48,0.00,,,0.00,meteohub,2013-07-07 21:02:00,
2013-07-07 16:07:00,91.6,69.1,29.29,SSW,194,3.0,13.0,48,0.00,,,0.00,meteohub,2013-07-07 21:07:00,
2013-07-07 16:12:00,91.9,68.9,29.29,WSW,248,7.0,13.0,47,0.00,,,0.00,meteohub,2013-07-07 21:12:00,
2013-07-07 16:17:00,92.1,68.4,29.30,WSW,242,9.0,12.0,46,0.00,,,0.00,meteohub,2013-07-07 21:17:00,
2013-07-07 16:23:00,92.1,68.9,29.29,SW,215,4.0,13.0,47,0.00,,,0.00,meteohub,2013-07-07 21:23:00,
2013-07-07 16:28:00,92.5,69.3,29.29,WSW,237,0.0,13.0,47,0.00,,,0.00,meteohub,2013-07-07 21:28:00,
2013-07-07 16:33:00,92.3,68.5,29.29,SW,234,0.0,13.0,46,0.00,,,0.00,meteohub,2013-07-07 21:33:00,
2013-07-07 16:38:00,92.5,68.7,29.29,West,266,4.0,12.0,46,0.00,,,0.00,meteohub,2013-07-07 21:38:00,
2013-07-07 16:43:00,92.5,68.7,29.29,SSW,199,9.0,14.0,46,0.00,,,0.00,meteohub,2013-07-07 21:43:00,
2013-07-07 16:48:00,92.1,68.9,29.29,SSW,202,3.0,14.0,47,0.00,,,0.00,meteohub,2013-07-07 21:48:00,
2013-07-07 16:53:00,91.8,69.3,29.29,WSW,248,4.0,14.0,48,0.00,,,0.00,meteohub,2013-07-07 21:53:00,
2013-07-07 16:58:00,91.9,69.4,29.29,WSW,252,0.0,12.0,48,0.00,,,0.00,meteohub,2013-07-07 21:58:00,
2013-07-07 17:03:00,92.1,69.6,29.29,SSW,206,9.0,12.0,48,0.00,,,0.00,meteohub,2013-07-07 22:03:00,
2013-07-07 17:08:00,91.9,68.9,29.29,SSW,200,4.0,15.0,47,0.00,,,0.00,meteohub,2013-07-07 22:08:00,
2013-07-07 17:13:00,91.8,68.7,29.29,SW,232,7.0,15.0,47,0.00,,,0.00,meteohub,2013-07-07 22:13:00,
2013-07-07 17:18:00,91.6,68.5,29.29,SSE,167,10.0,15.0,47,0.00,,,0.00,meteohub,2013-07-07 22:18:00,
2013-07-07 17:23:00,91.8,68.7,29.28,SSW,200,6.0,15.0,47,0.00,,,0.00,meteohub,2013-07-07 22:23:00,
2013-07-07 17:28:00,91.6,69.1,29.28,South,173,5.0,12.0,48,0.00,,,0.00,meteohub,2013-07-07 22:28:00,
2013-07-07 17:29:00,91.6,69.1,29.28,SW,228,8.0,12.0,48,0.00,,,0.00,meteohub,2013-07-07 22:29:00,
2013-07-07 17:34:00,91.6,69.1,29.28,SSW,196,2.0,12.0,48,0.00,,,0.00,meteohub,2013-07-07 22:34:00,
2013-07-07 17:39:00,91.6,69.8,29.28,South,176,0.0,12.0,49,0.00,,,0.00,meteohub,2013-07-07 22:39:00,
2013-07-07 17:44:00,91.6,69.8,29.28,SW,219,12.0,12.0,49,0.00,,,0.00,meteohub,2013-07-07 22:44:00,
2013-07-07 17:49:00,91.4,69.6,29.28,West,259,0.0,11.0,49,0.00,,,0.00,meteohub,2013-07-07 22:49:00,
2013-07-07 17:54:00,91.6,69.8,29.28,South,173,4.0,12.0,49,0.00,,,0.00,meteohub,2013-07-07 22:54:00,
2013-07-07 17:59:00,91.4,69.6,29.28,South,175,0.0,12.0,49,0.00,,,0.00,meteohub,2013-07-07 22:59:00,
2013-07-07 18:04:00,91.2,69.4,29.28,SSW,199,0.0,12.0,49,0.00,,,0.00,meteohub,2013-07-07 23:04:00,
2013-07-07 18:09:00,91.2,68.7,29.28,SW,216,9.0,11.0,48,0.00,,,0.00,meteohub,2013-07-07 23:09:00,
2013-07-07 18:14:00,91.2,69.4,29.28,SW,232,0.0,11.0,49,0.00,,,0.00,meteohub,2013-07-07 23:14:00,
2013-07-07 18:19:00,91.2,68.7,29.28,South,191,1.0,11.0,48,0.00,,,0.00,meteohub,2013-07-07 23:19:00,
2013-07-07 18:24:00,90.9,68.5,29.28,South,170,4.0,11.0,48,0.00,,,0.00,meteohub,2013-07-07 23:24:00,
2013-07-07 18:29:00,90.7,68.9,29.28,SSW,201,1.0,10.0,49,0.00,,,0.00,meteohub,2013-07-07 23:29:00,
2013-07-07 18:34:00,90.3,68.5,29.28,SW,236,2.0,12.0,49,0.00,,,0.00,meteohub,2013-07-07 23:34:00,
2013-07-07 18:39:00,90.1,68.9,29.28,SW,221,0.0,12.0,50,0.00,,,0.00,meteohub,2013-07-07 23:39:00,
2013-07-07 18:44:00,90.0,68.9,29.29,WSW,244,0.0,12.0,50,0.00,,,0.00,meteohub,2013-07-07 23:44:00,
2013-07-07 18:49:00,89.6,69.1,29.29,South,188,6.0,11.0,51,0.00,,,0.00,meteohub,2013-07-07 23:49:00,
2013-07-07 18:54:00,89.4,68.9,29.29,WSW,242,3.0,11.0,51,0.00,,,0.00,meteohub,2013-07-07 23:54:00,
2013-07-07 18:59:00,89.2,68.7,29.29,SW,218,6.0,9.0,51,0.00,,,0.00,meteohub,2013-07-07 23:59:00,
2013-07-07 19:04:00,89.2,69.3,29.29,SW,219,0.0,10.0,52,0.00,,,0.00,meteohub,2013-07-08 00:04:00,
2013-07-07 19:10:00,89.1,69.1,29.29,SSW,210,0.0,11.0,52,0.00,,,0.00,meteohub,2013-07-08 00:10:00,
2013-07-07 19:15:00,89.1,69.1,29.28,SSW,208,1.0,11.0,52,0.00,,,0.00,meteohub,2013-07-08 00:15:00,
2013-07-07 19:20:00,88.7,68.7,29.28,SW,217,0.0,7.0,52,0.00,,,0.00,meteohub,2013-07-08 00:20:00,
2013-07-07 19:25:00,88.3,68.5,29.28,SSW,196,0.0,9.0,52,0.00,,,0.00,meteohub,2013-07-08 00:25:00,
2013-07-07 19:30:00,88.2,68.9,29.28,SSW,211,2.0,9.0,53,0.00,,,0.00,meteohub,2013-07-08 00:30:00,
2013-07-07 19:35:00,88.0,68.7,29.29,SSW,194,3.0,9.0,53,0.00,,,0.00,meteohub,2013-07-08 00:35:00,
2013-07-07 19:40:00,87.8,68.5,29.29,SW,216,0.0,6.0,53,0.00,,,0.00,meteohub,2013-07-08 00:40:00,
2013-07-07 19:45:00,87.6,68.4,29.29,SSW,205,0.0,6.0,53,0.00,,,0.00,meteohub,2013-07-08 00:45:00,
2013-07-07 19:50:00,87.4,68.7,29.28,SSE,158,0.0,7.0,54,0.00,,,0.00,meteohub,2013-07-08 00:50:00,
2013-07-07 19:55:00,87.3,68.5,29.28,SSW,192,0.0,7.0,54,0.00,,,0.00,meteohub,2013-07-08 00:55:00,
2013-07-07 20:00:00,86.9,68.7,29.28,SSW,205,0.0,7.0,55,0.00,,,0.00,meteohub,2013-07-08 01:00:00,
2013-07-07 20:05:00,86.5,68.4,29.28,South,183,0.0,6.0,55,0.00,,,0.00,meteohub,2013-07-08 01:05:00,
2013-07-07 20:10:00,86.5,68.9,29.29,South,184,0.0,5.0,56,0.00,,,0.00,meteohub,2013-07-08 01:10:00,
2013-07-07 20:15:00,86.4,68.7,29.29,SW,217,0.0,5.0,56,0.00,,,0.00,meteohub,2013-07-08 01:15:00,
2013-07-07 20:20:00,86.2,68.7,29.29,SW,214,1.0,5.0,56,0.00,,,0.00,meteohub,2013-07-08 01:20:00,
2013-07-07 20:21:00,86.2,68.7,29.29,SW,215,4.0,4.0,56,0.00,,,0.00,meteohub,2013-07-08 01:21:00,
2013-07-07 20:26:00,85.8,68.9,29.29,SW,219,0.0,5.0,57,0.00,,,0.00,meteohub,2013-07-08 01:26:00,
2013-07-07 20:31:00,85.6,68.7,29.29,SW,219,0.0,5.0,57,0.00,,,0.00,meteohub,2013-07-08 01:31:00,
2013-07-07 20:36:00,85.3,68.9,29.28,SW,217,0.0,5.0,58,0.00,,,0.00,meteohub,2013-07-08 01:36:00,
2013-07-07 20:41:00,84.9,68.9,29.29,SSW,206,0.0,4.0,59,0.00,,,0.00,meteohub,2013-07-08 01:41:00,
2013-07-07 20:46:00,84.7,68.9,29.28,SSW,196,0.0,4.0,59,0.00,,,0.00,meteohub,2013-07-08 01:46:00,
2013-07-07 20:51:00,84.6,69.1,29.28,SW,214,0.0,5.0,60,0.00,,,0.00,meteohub,2013-07-08 01:51:00,
2013-07-07 20:56:00,84.4,68.9,29.28,SSW,213,0.0,5.0,60,0.00,,,0.00,meteohub,2013-07-08 01:56:00,
2013-07-07 21:01:00,84.0,69.1,29.28,SSW,193,0.0,5.0,61,0.00,,,0.00,meteohub,2013-07-08 02:01:00,
2013-07-07 21:06:00,83.8,68.9,29.28,SSE,165,2.0,5.0,61,0.00,,,0.00,meteohub,2013-07-08 02:06:00,
2013-07-07 21:11:00,83.7,69.3,29.28,SW,218,0.0,5.0,62,0.00,,,0.00,meteohub,2013-07-08 02:11:00,
2013-07-07 21:16:00,83.5,69.1,29.28,SW,218,3.0,4.0,62,0.00,,,0.00,meteohub,2013-07-08 02:16:00,
2013-07-07 21:21:00,83.3,68.9,29.29,SSW,196,3.0,5.0,62,0.00,,,0.00,meteohub,2013-07-08 02:21:00,
2013-07-07 21:26:00,83.1,68.7,29.29,South,188,2.0,6.0,62,0.00,,,0.00,meteohub,2013-07-08 02:26:00,
2013-07-07 21:31:00,82.9,68.5,29.29,SSW,196,0.0,6.0,62,0.00,,,0.00,meteohub,2013-07-08 02:31:00,
2013-07-07 21:36:00,82.9,68.5,29.29,South,186,0.0,6.0,62,0.00,,,0.00,meteohub,2013-07-08 02:36:00,
2013-07-07 21:41:00,82.9,69.1,29.30,SSW,198,0.0,6.0,63,0.00,,,0.00,meteohub,2013-07-08 02:41:00,
2013-07-07 21:46:00,82.8,68.9,29.30,South,189,2.0,7.0,63,0.00,,,0.00,meteohub,2013-07-08 02:46:00,
2013-07-07 21:51:00,82.6,69.1,29.30,South,181,4.0,7.0,64,0.00,,,0.00,meteohub,2013-07-08 02:51:00,
2013-07-07 21:56:00,82.6,69.1,29.30,SSW,196,2.0,6.0,64,0.00,,,0.00,meteohub,2013-07-08 02:56:00,
2013-07-07 22:01:00,82.6,69.6,29.30,South,182,2.0,10.0,65,0.00,,,0.00,meteohub,2013-07-08 03:01:00,
2013-07-07 22:06:00,82.6,69.6,29.30,SSW,192,2.0,10.0,65,0.00,,,0.00,meteohub,2013-07-08 03:06:00,
2013-07-07 22:11:00,82.6,69.6,29.31,South,172,0.0,10.0,65,0.00,,,0.00,meteohub,2013-07-08 03:11:00,
2013-07-07 22:16:00,82.6,69.6,29.31,South,177,5.0,8.0,65,0.00,,,0.00,meteohub,2013-07-08 03:16:00,
2013-07-07 22:21:00,82.6,70.0,29.31,South,188,7.0,7.0,66,0.00,,,0.00,meteohub,2013-07-08 03:21:00,
2013-07-07 22:26:00,82.4,70.0,29.31,SSW,194,0.0,7.0,66,0.00,,,0.00,meteohub,2013-07-08 03:26:00,
2013-07-07 22:31:00,82.2,69.8,29.31,South,186,0.0,7.0,66,0.00,,,0.00,meteohub,2013-07-08 03:31:00,
2013-07-07 22:36:00,82.0,70.0,29.31,SW,223,0.0,7.0,67,0.00,,,0.00,meteohub,2013-07-08 03:36:00,
2013-07-07 22:42:00,82.0,70.0,29.31,South,188,0.0,7.0,67,0.00,,,0.00,meteohub,2013-07-08 03:42:00,
2013-07-07 22:47:00,81.9,70.3,29.31,South,189,0.0,7.0,68,0.00,,,0.00,meteohub,2013-07-08 03:47:00,
2013-07-07 22:51:00,81.7,70.2,29.32,SSW,196,0.0,4.0,68,0.00,,,0.00,meteohub,2013-07-08 03:51:00,
2013-07-07 22:57:00,81.3,69.8,29.32,South,189,2.0,4.0,68,0.00,,,0.00,meteohub,2013-07-08 03:57:00,
2013-07-07 23:01:00,81.3,69.8,29.32,SSW,208,0.0,7.0,68,0.00,,,0.00,meteohub,2013-07-08 04:01:00,
2013-07-07 23:06:00,81.3,69.8,29.32,SW,218,0.0,7.0,68,0.00,,,0.00,meteohub,2013-07-08 04:06:00,
2013-07-07 23:11:00,81.3,69.8,29.33,SW,215,0.0,7.0,68,0.00,,,0.00,meteohub,2013-07-08 04:11:00,
2013-07-07 23:16:00,81.1,69.6,29.33,SSW,207,1.0,7.0,68,0.00,,,0.00,meteohub,2013-07-08 04:16:00,
2013-07-07 23:22:00,81.1,69.6,29.33,SSW,202,0.0,7.0,68,0.00,,,0.00,meteohub,2013-07-08 04:22:00,
2013-07-07 23:27:00,81.1,69.6,29.32,SW,231,0.0,7.0,68,0.00,,,0.00,meteohub,2013-07-08 04:27:00,
2013-07-07 23:32:00,81.1,69.6,29.32,South,184,0.0,7.0,68,0.00,,,0.00,meteohub,2013-07-08 04:32:00,
2013-07-07 23:37:00,81.1,69.6,29.32,SSW,205,0.0,7.0,68,0.00,,,0.00,meteohub,2013-07-08 04:37:00,
2013-07-07 23:42:00,81.1,69.6,29.33,SW,234,0.0,9.0,68,0.00,,,0.00,meteohub,2013-07-08 04:42:00,
2013-07-07 23:47:00,81.1,69.1,29.33,SW,223,0.0,9.0,67,0.00,,,0.00,meteohub,2013-07-08 04:47:00,
2013-07-07 23:52:00,81.1,69.1,29.33,SSW,200,0.0,9.0,67,0.00,,,0.00,meteohub,2013-07-08 04:52:00,
2013-07-07 23:57:00,81.1,69.1,29.34,SSW,194,3.0,9.0,67,0.00,,,0.00,meteohub,2013-07-08 04:57:00,